sensor_id;sensor_type;location;lat;lon;timestamp;temperature;humidity
12229;DHT22;6177;52.402;9.800;2022-09-09T00:00:21;14.50;97.10
12229;DHT22;6177;52.402;9.800;2022-09-09T00:05:53;14.40;97.10
12229;DHT22;6177;52.402;9.800;2022-09-09T00:08:52;14.40;97.00
12229;DHT22;6177;52.402;9.800;2022-09-09T00:14:27;14.40;97.00
12229;DHT22;6177;52.402;9.800;2022-09-09T00:23:25;14.40;96.90
12229;DHT22;6177;52.402;9.800;2022-09-09T00:32:00;14.40;96.70
12229;DHT22;6177;52.402;9.800;2022-09-09T00:34:56;14.30;96.70
12229;DHT22;6177;52.402;9.800;2022-09-09T00:37:42;14.30;96.70
12229;DHT22;6177;52.402;9.800;2022-09-09T00:40:35;14.30;96.60
12229;DHT22;6177;52.402;9.800;2022-09-09T00:43:26;14.30;96.60
12229;DHT22;6177;52.402;9.800;2022-09-09T00:46:31;14.30;96.50
12229;DHT22;6177;52.402;9.800;2022-09-09T00:49:29;14.20;96.50
12229;DHT22;6177;52.402;9.800;2022-09-09T00:55:12;14.20;96.50
12229;DHT22;6177;52.402;9.800;2022-09-09T00:58:00;14.20;96.50
12229;DHT22;6177;52.402;9.800;2022-09-09T01:00:45;14.10;96.40
12229;DHT22;6177;52.402;9.800;2022-09-09T01:03:34;14.10;96.40
12229;DHT22;6177;52.402;9.800;2022-09-09T01:06:30;14.10;96.40
12229;DHT22;6177;52.402;9.800;2022-09-09T01:09:22;14.10;96.40
12229;DHT22;6177;52.402;9.800;2022-09-09T01:12:16;14.00;96.30
12229;DHT22;6177;52.402;9.800;2022-09-09T01:15:14;14.00;96.30
12229;DHT22;6177;52.402;9.800;2022-09-09T01:18:08;14.00;96.30
12229;DHT22;6177;52.402;9.800;2022-09-09T01:26:39;14.00;96.10
12229;DHT22;6177;52.402;9.800;2022-09-09T01:29:30;13.90;96.10
12229;DHT22;6177;52.402;9.800;2022-09-09T01:38:08;13.90;96.10
12229;DHT22;6177;52.402;9.800;2022-09-09T01:40:53;13.90;96.10
12229;DHT22;6177;52.402;9.800;2022-09-09T01:43:42;13.90;96.10
12229;DHT22;6177;52.402;9.800;2022-09-09T01:46:27;13.90;96.10
12229;DHT22;6177;52.402;9.800;2022-09-09T01:49:12;13.90;96.00
12229;DHT22;6177;52.402;9.800;2022-09-09T01:51:57;13.90;96.00
12229;DHT22;6177;52.402;9.800;2022-09-09T01:54:46;13.80;96.00
12229;DHT22;6177;52.402;9.800;2022-09-09T02:00:22;13.80;96.00
12229;DHT22;6177;52.402;9.800;2022-09-09T02:03:21;13.80;96.00
12229;DHT22;6177;52.402;9.800;2022-09-09T02:06:19;13.80;96.10
12229;DHT22;6177;52.402;9.800;2022-09-09T02:09:10;13.70;96.10
12229;DHT22;6177;52.402;9.800;2022-09-09T02:12:08;13.70;96.10
12229;DHT22;6177;52.402;9.800;2022-09-09T02:15:04;13.70;96.00
12229;DHT22;6177;52.402;9.800;2022-09-09T02:18:01;13.60;96.10
12229;DHT22;6177;52.402;9.800;2022-09-09T02:20:51;13.60;96.10
12229;DHT22;6177;52.402;9.800;2022-09-09T02:23:36;13.60;96.10
12229;DHT22;6177;52.402;9.800;2022-09-09T02:26:26;13.60;96.10
12229;DHT22;6177;52.402;9.800;2022-09-09T02:29:18;13.60;96.10
12229;DHT22;6177;52.402;9.800;2022-09-09T02:32:05;13.60;96.20
12229;DHT22;6177;52.402;9.800;2022-09-09T02:34:55;13.60;96.20
12229;DHT22;6177;52.402;9.800;2022-09-09T02:37:41;13.60;96.10
12229;DHT22;6177;52.402;9.800;2022-09-09T02:40:27;13.60;96.10
12229;DHT22;6177;52.402;9.800;2022-09-09T02:43:17;13.60;96.20
12229;DHT22;6177;52.402;9.800;2022-09-09T02:49:02;13.60;96.20
12229;DHT22;6177;52.402;9.800;2022-09-09T02:51:53;13.60;96.30
12229;DHT22;6177;52.402;9.800;2022-09-09T02:54:42;13.60;96.50
12229;DHT22;6177;52.402;9.800;2022-09-09T02:57:29;13.80;96.60
12229;DHT22;6177;52.402;9.800;2022-09-09T03:00:15;13.80;96.60
12229;DHT22;6177;52.402;9.800;2022-09-09T03:03:00;13.80;96.50
12229;DHT22;6177;52.402;9.800;2022-09-09T03:05:44;13.90;96.40
12229;DHT22;6177;52.402;9.800;2022-09-09T03:08:29;13.90;96.40
12229;DHT22;6177;52.402;9.800;2022-09-09T03:11:16;13.90;96.40
12229;DHT22;6177;52.402;9.800;2022-09-09T03:14:01;13.90;96.30
12229;DHT22;6177;52.402;9.800;2022-09-09T03:16:48;14.00;96.40
12229;DHT22;6177;52.402;9.800;2022-09-09T03:19:33;14.00;96.40
12229;DHT22;6177;52.402;9.800;2022-09-09T03:22:19;14.10;96.40
12229;DHT22;6177;52.402;9.800;2022-09-09T03:25:05;14.10;96.40
12229;DHT22;6177;52.402;9.800;2022-09-09T03:27:54;14.20;96.30
12229;DHT22;6177;52.402;9.800;2022-09-09T03:30:39;14.20;96.20
12229;DHT22;6177;52.402;9.800;2022-09-09T03:33:24;14.30;96.10
12229;DHT22;6177;52.402;9.800;2022-09-09T03:36:08;14.30;96.10
12229;DHT22;6177;52.402;9.800;2022-09-09T03:38:54;14.30;96.00
12229;DHT22;6177;52.402;9.800;2022-09-09T03:41:40;14.40;95.90
12229;DHT22;6177;52.402;9.800;2022-09-09T03:44:25;14.40;95.80
12229;DHT22;6177;52.402;9.800;2022-09-09T03:47:11;14.40;95.80
12229;DHT22;6177;52.402;9.800;2022-09-09T03:49:55;14.40;95.70
12229;DHT22;6177;52.402;9.800;2022-09-09T03:52:40;14.40;95.70
12229;DHT22;6177;52.402;9.800;2022-09-09T03:55:31;14.50;95.70
12229;DHT22;6177;52.402;9.800;2022-09-09T03:58:16;14.50;95.60
12229;DHT22;6177;52.402;9.800;2022-09-09T04:01:06;14.50;95.60
12229;DHT22;6177;52.402;9.800;2022-09-09T04:03:51;14.60;95.50
12229;DHT22;6177;52.402;9.800;2022-09-09T04:06:36;14.60;95.50
12229;DHT22;6177;52.402;9.800;2022-09-09T04:09:21;14.60;95.40
12229;DHT22;6177;52.402;9.800;2022-09-09T04:12:07;14.60;95.40
12229;DHT22;6177;52.402;9.800;2022-09-09T04:14:52;14.70;95.30
12229;DHT22;6177;52.402;9.800;2022-09-09T04:17:37;14.70;95.20
12229;DHT22;6177;52.402;9.800;2022-09-09T04:20:22;14.70;95.20
12229;DHT22;6177;52.402;9.800;2022-09-09T04:23:06;14.60;95.10
12229;DHT22;6177;52.402;9.800;2022-09-09T04:25:52;14.70;95.10
12229;DHT22;6177;52.402;9.800;2022-09-09T04:28:37;14.70;95.10
12229;DHT22;6177;52.402;9.800;2022-09-09T04:31:25;14.70;95.20
12229;DHT22;6177;52.402;9.800;2022-09-09T04:34:13;14.70;95.20
12229;DHT22;6177;52.402;9.800;2022-09-09T04:36:58;14.70;95.20
12229;DHT22;6177;52.402;9.800;2022-09-09T04:39:45;14.70;95.20
12229;DHT22;6177;52.402;9.800;2022-09-09T04:42:29;14.70;95.30
12229;DHT22;6177;52.402;9.800;2022-09-09T04:45:13;14.70;95.30
12229;DHT22;6177;52.402;9.800;2022-09-09T04:47:59;14.80;95.30
12229;DHT22;6177;52.402;9.800;2022-09-09T04:50:44;14.80;95.30
12229;DHT22;6177;52.402;9.800;2022-09-09T04:53:37;14.90;95.20
12229;DHT22;6177;52.402;9.800;2022-09-09T04:56:22;14.90;95.20
12229;DHT22;6177;52.402;9.800;2022-09-09T04:59:12;14.90;95.20
12229;DHT22;6177;52.402;9.800;2022-09-09T05:02:02;14.90;95.10
12229;DHT22;6177;52.402;9.800;2022-09-09T05:04:47;15.00;95.00
12229;DHT22;6177;52.402;9.800;2022-09-09T05:07:33;15.00;95.00
12229;DHT22;6177;52.402;9.800;2022-09-09T05:10:18;15.10;94.90
12229;DHT22;6177;52.402;9.800;2022-09-09T05:13:04;15.10;94.80
12229;DHT22;6177;52.402;9.800;2022-09-09T05:15:53;15.10;94.70
12229;DHT22;6177;52.402;9.800;2022-09-09T05:18:38;15.20;94.60
12229;DHT22;6177;52.402;9.800;2022-09-09T05:21:23;15.20;94.50
12229;DHT22;6177;52.402;9.800;2022-09-09T05:24:10;15.30;94.40
12229;DHT22;6177;52.402;9.800;2022-09-09T05:26:56;15.30;94.30
12229;DHT22;6177;52.402;9.800;2022-09-09T05:29:42;15.30;94.20
12229;DHT22;6177;52.402;9.800;2022-09-09T05:32:29;15.40;94.00
12229;DHT22;6177;52.402;9.800;2022-09-09T05:35:18;15.40;94.00
12229;DHT22;6177;52.402;9.800;2022-09-09T05:38:03;15.40;94.00
12229;DHT22;6177;52.402;9.800;2022-09-09T05:40:48;15.40;93.90
12229;DHT22;6177;52.402;9.800;2022-09-09T05:43:34;15.50;93.80
12229;DHT22;6177;52.402;9.800;2022-09-09T05:49:06;15.50;93.60
12229;DHT22;6177;52.402;9.800;2022-09-09T05:51:53;15.60;93.80
12229;DHT22;6177;52.402;9.800;2022-09-09T05:54:38;15.60;93.70
12229;DHT22;6177;52.402;9.800;2022-09-09T05:57:24;15.60;93.70
12229;DHT22;6177;52.402;9.800;2022-09-09T06:00:09;15.70;93.70
12229;DHT22;6177;52.402;9.800;2022-09-09T06:02:58;15.70;93.70
12229;DHT22;6177;52.402;9.800;2022-09-09T06:05:43;15.80;93.70
12229;DHT22;6177;52.402;9.800;2022-09-09T06:08:28;15.80;93.70
12229;DHT22;6177;52.402;9.800;2022-09-09T06:11:17;15.90;93.60
12229;DHT22;6177;52.402;9.800;2022-09-09T06:14:02;15.90;93.50
12229;DHT22;6177;52.402;9.800;2022-09-09T06:16:48;16.00;93.30
12229;DHT22;6177;52.402;9.800;2022-09-09T06:19:41;16.00;93.10
12229;DHT22;6177;52.402;9.800;2022-09-09T06:22:25;16.00;93.10
12229;DHT22;6177;52.402;9.800;2022-09-09T06:25:10;16.10;93.10
12229;DHT22;6177;52.402;9.800;2022-09-09T06:27:56;16.10;93.10
12229;DHT22;6177;52.402;9.800;2022-09-09T06:30:41;16.20;93.00
12229;DHT22;6177;52.402;9.800;2022-09-09T06:33:26;16.20;92.80
12229;DHT22;6177;52.402;9.800;2022-09-09T06:36:12;16.30;92.80
12229;DHT22;6177;52.402;9.800;2022-09-09T06:38:56;16.30;92.80
12229;DHT22;6177;52.402;9.800;2022-09-09T06:41:41;16.30;92.80
12229;DHT22;6177;52.402;9.800;2022-09-09T06:44:36;16.40;92.80
12229;DHT22;6177;52.402;9.800;2022-09-09T06:47:24;16.40;92.70
12229;DHT22;6177;52.402;9.800;2022-09-09T06:50:09;16.50;92.70
12229;DHT22;6177;52.402;9.800;2022-09-09T06:52:56;16.60;92.80
12229;DHT22;6177;52.402;9.800;2022-09-09T06:55:41;16.70;92.60
12229;DHT22;6177;52.402;9.800;2022-09-09T06:58:29;16.80;92.60
12229;DHT22;6177;52.402;9.800;2022-09-09T07:01:16;16.90;92.30
12229;DHT22;6177;52.402;9.800;2022-09-09T07:04:01;17.00;92.20
12229;DHT22;6177;52.402;9.800;2022-09-09T07:06:52;17.20;92.20
12229;DHT22;6177;52.402;9.800;2022-09-09T07:09:41;17.20;92.00
12229;DHT22;6177;52.402;9.800;2022-09-09T07:12:26;17.30;91.80
12229;DHT22;6177;52.402;9.800;2022-09-09T07:15:16;17.40;91.60
12229;DHT22;6177;52.402;9.800;2022-09-09T07:18:03;17.40;91.60
12229;DHT22;6177;52.402;9.800;2022-09-09T07:20:54;17.40;91.60
12229;DHT22;6177;52.402;9.800;2022-09-09T07:23:39;17.50;91.70
12229;DHT22;6177;52.402;9.800;2022-09-09T07:26:25;17.60;91.60
12229;DHT22;6177;52.402;9.800;2022-09-09T07:29:11;17.70;90.90
12229;DHT22;6177;52.402;9.800;2022-09-09T07:31:58;17.70;90.50
12229;DHT22;6177;52.402;9.800;2022-09-09T07:34:49;17.70;90.60
12229;DHT22;6177;52.402;9.800;2022-09-09T07:37:36;17.80;90.50
12229;DHT22;6177;52.402;9.800;2022-09-09T07:40:20;17.80;90.20
12229;DHT22;6177;52.402;9.800;2022-09-09T07:43:06;17.80;90.10
12229;DHT22;6177;52.402;9.800;2022-09-09T07:45:56;17.90;89.80
12229;DHT22;6177;52.402;9.800;2022-09-09T07:48:45;17.90;89.30
12229;DHT22;6177;52.402;9.800;2022-09-09T07:51:31;18.00;88.20
12229;DHT22;6177;52.402;9.800;2022-09-09T07:54:16;17.90;88.60
12229;DHT22;6177;52.402;9.800;2022-09-09T07:57:05;18.00;88.70
12229;DHT22;6177;52.402;9.800;2022-09-09T07:59:52;18.10;87.30
12229;DHT22;6177;52.402;9.800;2022-09-09T08:02:37;18.20;85.10
12229;DHT22;6177;52.402;9.800;2022-09-09T08:05:22;18.30;84.90
12229;DHT22;6177;52.402;9.800;2022-09-09T08:08:08;18.30;84.80
12229;DHT22;6177;52.402;9.800;2022-09-09T08:10:53;18.40;85.40
12229;DHT22;6177;52.402;9.800;2022-09-09T08:13:38;18.50;85.70
12229;DHT22;6177;52.402;9.800;2022-09-09T08:16:25;18.60;85.80
12229;DHT22;6177;52.402;9.800;2022-09-09T08:19:10;18.60;85.80
12229;DHT22;6177;52.402;9.800;2022-09-09T08:21:55;18.60;85.60
12229;DHT22;6177;52.402;9.800;2022-09-09T08:24:39;18.70;85.20
12229;DHT22;6177;52.402;9.800;2022-09-09T08:27:26;18.70;84.60
12229;DHT22;6177;52.402;9.800;2022-09-09T08:30:12;18.90;83.80
12229;DHT22;6177;52.402;9.800;2022-09-09T08:32:57;19.00;82.90
12229;DHT22;6177;52.402;9.800;2022-09-09T08:35:49;19.20;81.90
12229;DHT22;6177;52.402;9.800;2022-09-09T08:38:33;19.30;80.30
12229;DHT22;6177;52.402;9.800;2022-09-09T08:53:14;20.00;79.80
12229;DHT22;6177;52.402;9.800;2022-09-09T08:56:09;20.10;79.50
12229;DHT22;6177;52.402;9.800;2022-09-09T08:59:03;20.10;78.40
12229;DHT22;6177;52.402;9.800;2022-09-09T09:07:59;20.50;75.50
12229;DHT22;6177;52.402;9.800;2022-09-09T09:10:49;20.60;73.10
12229;DHT22;6177;52.402;9.800;2022-09-09T09:13:46;20.70;72.50
12229;DHT22;6177;52.402;9.800;2022-09-09T09:19:19;20.70;73.10
12229;DHT22;6177;52.402;9.800;2022-09-09T09:27:57;21.10;72.30
12229;DHT22;6177;52.402;9.800;2022-09-09T09:30:48;21.20;71.80
12229;DHT22;6177;52.402;9.800;2022-09-09T09:36:20;21.50;70.70
12229;DHT22;6177;52.402;9.800;2022-09-09T09:39:05;21.60;71.10
12229;DHT22;6177;52.402;9.800;2022-09-09T09:41:51;21.80;71.00
12229;DHT22;6177;52.402;9.800;2022-09-09T09:44:37;22.00;69.50
12229;DHT22;6177;52.402;9.800;2022-09-09T09:47:28;22.10;69.50
12229;DHT22;6177;52.402;9.800;2022-09-09T09:50:21;22.30;69.60
12229;DHT22;6177;52.402;9.800;2022-09-09T09:53:20;22.40;69.20
12229;DHT22;6177;52.402;9.800;2022-09-09T09:56:09;22.50;68.80
12229;DHT22;6177;52.402;9.800;2022-09-09T09:58:54;22.60;67.70
12229;DHT22;6177;52.402;9.800;2022-09-09T10:01:44;22.50;68.00
12229;DHT22;6177;52.402;9.800;2022-09-09T10:04:29;22.50;67.90
12229;DHT22;6177;52.402;9.800;2022-09-09T10:07:21;22.50;68.00
12229;DHT22;6177;52.402;9.800;2022-09-09T10:10:08;22.40;68.40
12229;DHT22;6177;52.402;9.800;2022-09-09T10:13:39;22.40;68.50
12229;DHT22;6177;52.402;9.800;2022-09-09T10:55:25;21.70;68.10
12229;DHT22;6177;52.402;9.800;2022-09-09T10:58:35;21.60;68.20
12229;DHT22;6177;52.402;9.800;2022-09-09T11:02:05;21.50;68.40
12229;DHT22;6177;52.402;9.800;2022-09-09T11:04:38;21.40;69.00
12229;DHT22;6177;52.402;9.800;2022-09-09T11:07:26;21.40;69.00
12229;DHT22;6177;52.402;9.800;2022-09-09T11:10:17;21.50;68.50
12229;DHT22;6177;52.402;9.800;2022-09-09T11:13:05;21.30;69.00
12229;DHT22;6177;52.402;9.800;2022-09-09T11:19:28;21.20;70.00
12229;DHT22;6177;52.402;9.800;2022-09-09T11:25:16;21.00;70.50
12229;DHT22;6177;52.402;9.800;2022-09-09T11:44:57;20.20;71.70
12229;DHT22;6177;52.402;9.800;2022-09-09T11:47:53;19.70;72.40
12229;DHT22;6177;52.402;9.800;2022-09-09T11:50:39;19.30;72.70
12229;DHT22;6177;52.402;9.800;2022-09-09T11:53:24;18.90;74.00
12229;DHT22;6177;52.402;9.800;2022-09-09T11:56:10;18.70;74.50
12229;DHT22;6177;52.402;9.800;2022-09-09T11:58:59;18.40;75.40
12229;DHT22;6177;52.402;9.800;2022-09-09T12:01:53;18.20;75.70
12229;DHT22;6177;52.402;9.800;2022-09-09T12:04:39;18.10;76.10
12229;DHT22;6177;52.402;9.800;2022-09-09T12:07:27;18.00;76.00
12229;DHT22;6177;52.402;9.800;2022-09-09T12:10:33;17.80;76.60
12229;DHT22;6177;52.402;9.800;2022-09-09T12:13:19;17.80;76.60
12229;DHT22;6177;52.402;9.800;2022-09-09T12:16:04;17.70;77.50
12229;DHT22;6177;52.402;9.800;2022-09-09T12:18:49;17.70;78.00
12229;DHT22;6177;52.402;9.800;2022-09-09T12:21:44;17.70;78.40
12229;DHT22;6177;52.402;9.800;2022-09-09T12:24:42;17.70;79.30
12229;DHT22;6177;52.402;9.800;2022-09-09T12:27:33;17.90;79.70
12229;DHT22;6177;52.402;9.800;2022-09-09T12:30:20;18.10;80.20
12229;DHT22;6177;52.402;9.800;2022-09-09T12:33:12;18.50;80.70
12229;DHT22;6177;52.402;9.800;2022-09-09T12:35:57;18.90;80.20
12229;DHT22;6177;52.402;9.800;2022-09-09T12:38:42;19.50;79.40
12229;DHT22;6177;52.402;9.800;2022-09-09T12:41:27;20.20;78.00
12229;DHT22;6177;52.402;9.800;2022-09-09T12:44:12;20.90;76.90
12229;DHT22;6177;52.402;9.800;2022-09-09T12:46:58;21.70;76.20
12229;DHT22;6177;52.402;9.800;2022-09-09T12:49:43;23.00;73.90
12229;DHT22;6177;52.402;9.800;2022-09-09T12:52:31;24.60;70.40
12229;DHT22;6177;52.402;9.800;2022-09-09T12:55:20;26.10;66.60
12229;DHT22;6177;52.402;9.800;2022-09-09T12:58:05;27.00;60.40
12229;DHT22;6177;52.402;9.800;2022-09-09T13:00:51;27.30;55.40
12229;DHT22;6177;52.402;9.800;2022-09-09T13:03:41;27.30;52.40
12229;DHT22;6177;52.402;9.800;2022-09-09T13:06:28;27.20;52.30
12229;DHT22;6177;52.402;9.800;2022-09-09T13:09:13;27.30;52.30
12229;DHT22;6177;52.402;9.800;2022-09-09T13:11:57;28.00;51.90
12229;DHT22;6177;52.402;9.800;2022-09-09T13:14:43;28.20;50.80
12229;DHT22;6177;52.402;9.800;2022-09-09T13:17:28;28.60;49.30
12229;DHT22;6177;52.402;9.800;2022-09-09T13:20:17;28.40;48.60
12229;DHT22;6177;52.402;9.800;2022-09-09T13:23:01;27.80;49.90
12229;DHT22;6177;52.402;9.800;2022-09-09T13:25:56;27.00;51.70
12229;DHT22;6177;52.402;9.800;2022-09-09T13:28:41;26.30;54.60
12229;DHT22;6177;52.402;9.800;2022-09-09T13:31:29;25.70;56.90
12229;DHT22;6177;52.402;9.800;2022-09-09T13:34:28;25.00;58.30
12229;DHT22;6177;52.402;9.800;2022-09-09T13:37:20;24.40;60.00
12229;DHT22;6177;52.402;9.800;2022-09-09T13:40:06;23.80;61.00
12229;DHT22;6177;52.402;9.800;2022-09-09T13:42:59;23.40;61.50
12229;DHT22;6177;52.402;9.800;2022-09-09T13:45:51;23.00;62.30
12229;DHT22;6177;52.402;9.800;2022-09-09T13:48:37;22.80;63.50
12229;DHT22;6177;52.402;9.800;2022-09-09T13:51:44;22.70;64.30
12229;DHT22;6177;52.402;9.800;2022-09-09T13:54:29;22.60;64.40
12229;DHT22;6177;52.402;9.800;2022-09-09T13:57:24;22.50;64.90
12229;DHT22;6177;52.402;9.800;2022-09-09T14:00:10;22.40;65.30
12229;DHT22;6177;52.402;9.800;2022-09-09T14:02:56;22.30;65.70
12229;DHT22;6177;52.402;9.800;2022-09-09T14:05:40;22.20;66.10
12229;DHT22;6177;52.402;9.800;2022-09-09T14:08:26;22.10;66.60
12229;DHT22;6177;52.402;9.800;2022-09-09T14:11:12;22.00;66.30
12229;DHT22;6177;52.402;9.800;2022-09-09T14:13:57;22.10;66.40
12229;DHT22;6177;52.402;9.800;2022-09-09T14:16:41;22.10;66.60
12229;DHT22;6177;52.402;9.800;2022-09-09T14:19:26;22.20;66.60
12229;DHT22;6177;52.402;9.800;2022-09-09T14:22:11;22.30;66.90
12229;DHT22;6177;52.402;9.800;2022-09-09T14:24:55;22.40;66.70
12229;DHT22;6177;52.402;9.800;2022-09-09T14:27:40;22.60;65.90
12229;DHT22;6177;52.402;9.800;2022-09-09T14:30:26;22.80;65.30
12229;DHT22;6177;52.402;9.800;2022-09-09T14:33:11;22.90;64.90
12229;DHT22;6177;52.402;9.800;2022-09-09T14:36:00;22.90;64.60
12229;DHT22;6177;52.402;9.800;2022-09-09T14:38:45;22.90;64.80
12229;DHT22;6177;52.402;9.800;2022-09-09T14:41:29;23.00;64.80
12229;DHT22;6177;52.402;9.800;2022-09-09T14:44:14;23.10;64.40
12229;DHT22;6177;52.402;9.800;2022-09-09T14:47:00;23.20;64.00
12229;DHT22;6177;52.402;9.800;2022-09-09T14:49:44;23.30;63.80
12229;DHT22;6177;52.402;9.800;2022-09-09T14:52:29;23.50;63.80
12229;DHT22;6177;52.402;9.800;2022-09-09T14:55:14;24.30;63.70
12229;DHT22;6177;52.402;9.800;2022-09-09T14:57:59;26.30;60.80
12229;DHT22;6177;52.402;9.800;2022-09-09T15:00:43;28.00;53.20
12229;DHT22;6177;52.402;9.800;2022-09-09T15:03:27;28.90;49.30
12229;DHT22;6177;52.402;9.800;2022-09-09T15:06:13;29.60;47.90
12229;DHT22;6177;52.402;9.800;2022-09-09T15:08:57;30.40;46.40
12229;DHT22;6177;52.402;9.800;2022-09-09T15:11:42;30.70;44.60
12229;DHT22;6177;52.402;9.800;2022-09-09T15:14:27;31.10;42.90
12229;DHT22;6177;52.402;9.800;2022-09-09T15:17:12;31.90;41.80
12229;DHT22;6177;52.402;9.800;2022-09-09T15:19:57;31.80;40.10
12229;DHT22;6177;52.402;9.800;2022-09-09T15:22:41;31.50;39.90
12229;DHT22;6177;52.402;9.800;2022-09-09T15:25:26;31.70;40.60
12229;DHT22;6177;52.402;9.800;2022-09-09T15:28:10;32.60;39.70
12229;DHT22;6177;52.402;9.800;2022-09-09T15:30:56;33.40;39.10
12229;DHT22;6177;52.402;9.800;2022-09-09T15:33:41;33.60;37.70
12229;DHT22;6177;52.402;9.800;2022-09-09T15:36:26;32.90;36.80
12229;DHT22;6177;52.402;9.800;2022-09-09T15:39:12;32.00;38.30
12229;DHT22;6177;52.402;9.800;2022-09-09T15:41:56;30.90;40.40
12229;DHT22;6177;52.402;9.800;2022-09-09T15:44:41;29.90;42.40
12229;DHT22;6177;52.402;9.800;2022-09-09T15:47:26;28.90;44.00
12229;DHT22;6177;52.402;9.800;2022-09-09T15:50:11;28.00;46.40
12229;DHT22;6177;52.402;9.800;2022-09-09T15:52:55;27.30;48.30
12229;DHT22;6177;52.402;9.800;2022-09-09T15:55:40;26.90;49.90
12229;DHT22;6177;52.402;9.800;2022-09-09T15:58:24;26.60;51.60
12229;DHT22;6177;52.402;9.800;2022-09-09T16:01:09;26.30;52.20
12229;DHT22;6177;52.402;9.800;2022-09-09T16:03:53;25.90;53.10
12229;DHT22;6177;52.402;9.800;2022-09-09T16:06:38;25.50;54.20
12229;DHT22;6177;52.402;9.800;2022-09-09T16:09:22;25.20;55.70
12229;DHT22;6177;52.402;9.800;2022-09-09T16:12:07;24.90;56.50
12229;DHT22;6177;52.402;9.800;2022-09-09T16:14:53;24.80;57.20
12229;DHT22;6177;52.402;9.800;2022-09-09T16:17:39;24.60;58.40
12229;DHT22;6177;52.402;9.800;2022-09-09T16:20:23;24.50;59.90
12229;DHT22;6177;52.402;9.800;2022-09-09T16:23:09;24.40;60.00
12229;DHT22;6177;52.402;9.800;2022-09-09T16:25:55;24.40;60.00
12229;DHT22;6177;52.402;9.800;2022-09-09T16:28:39;24.40;60.50
12229;DHT22;6177;52.402;9.800;2022-09-09T16:31:25;24.40;60.40
12229;DHT22;6177;52.402;9.800;2022-09-09T16:34:09;24.30;60.50
12229;DHT22;6177;52.402;9.800;2022-09-09T16:36:54;24.10;61.00
12229;DHT22;6177;52.402;9.800;2022-09-09T16:39:38;24.00;61.30
12229;DHT22;6177;52.402;9.800;2022-09-09T16:42:23;23.90;61.50
12229;DHT22;6177;52.402;9.800;2022-09-09T16:48:07;23.60;62.40
12229;DHT22;6177;52.402;9.800;2022-09-09T16:50:51;23.40;62.80
12229;DHT22;6177;52.402;9.800;2022-09-09T16:53:36;23.30;63.10
12229;DHT22;6177;52.402;9.800;2022-09-09T16:56:22;23.00;63.10
12229;DHT22;6177;52.402;9.800;2022-09-09T16:59:10;22.80;63.70
12229;DHT22;6177;52.402;9.800;2022-09-09T17:01:55;22.60;64.40
12229;DHT22;6177;52.402;9.800;2022-09-09T17:04:39;22.40;64.90
12229;DHT22;6177;52.402;9.800;2022-09-09T17:07:25;22.20;65.50
12229;DHT22;6177;52.402;9.800;2022-09-09T17:10:09;22.00;65.90
12229;DHT22;6177;52.402;9.800;2022-09-09T17:12:53;21.90;66.30
12229;DHT22;6177;52.402;9.800;2022-09-09T17:15:39;21.80;67.00
12229;DHT22;6177;52.402;9.800;2022-09-09T17:18:26;21.70;67.80
12229;DHT22;6177;52.402;9.800;2022-09-09T17:21:13;21.60;68.40
12229;DHT22;6177;52.402;9.800;2022-09-09T17:23:58;21.60;69.10
12229;DHT22;6177;52.402;9.800;2022-09-09T17:26:43;21.50;69.50
12229;DHT22;6177;52.402;9.800;2022-09-09T17:29:29;21.50;70.10
12229;DHT22;6177;52.402;9.800;2022-09-09T17:32:14;21.50;70.40
12229;DHT22;6177;52.402;9.800;2022-09-09T17:35:06;21.50;70.50
12229;DHT22;6177;52.402;9.800;2022-09-09T17:37:52;21.50;71.10
12229;DHT22;6177;52.402;9.800;2022-09-09T17:40:36;21.40;71.50
12229;DHT22;6177;52.402;9.800;2022-09-09T17:43:21;21.40;72.30
12229;DHT22;6177;52.402;9.800;2022-09-09T17:46:07;21.40;72.10
12229;DHT22;6177;52.402;9.800;2022-09-09T17:48:54;21.20;71.20
12229;DHT22;6177;52.402;9.800;2022-09-09T17:51:49;21.10;70.80
12229;DHT22;6177;52.402;9.800;2022-09-09T17:54:38;20.90;71.30
12229;DHT22;6177;52.402;9.800;2022-09-09T17:57:41;20.90;70.30
12229;DHT22;6177;52.402;9.800;2022-09-09T18:00:27;20.80;69.30
12229;DHT22;6177;52.402;9.800;2022-09-09T18:03:13;20.70;69.20
12229;DHT22;6177;52.402;9.800;2022-09-09T18:06:01;20.70;68.60
12229;DHT22;6177;52.402;9.800;2022-09-09T18:08:49;20.50;68.60
12229;DHT22;6177;52.402;9.800;2022-09-09T18:11:35;20.50;68.50
12229;DHT22;6177;52.402;9.800;2022-09-09T18:14:23;20.40;69.90
12229;DHT22;6177;52.402;9.800;2022-09-09T18:17:08;20.40;71.30
12229;DHT22;6177;52.402;9.800;2022-09-09T18:19:52;20.30;72.50
12229;DHT22;6177;52.402;9.800;2022-09-09T18:22:38;20.30;73.30
12229;DHT22;6177;52.402;9.800;2022-09-09T18:25:22;20.20;73.70
12229;DHT22;6177;52.402;9.800;2022-09-09T18:28:08;20.20;74.50
12229;DHT22;6177;52.402;9.800;2022-09-09T18:30:52;20.20;75.20
12229;DHT22;6177;52.402;9.800;2022-09-09T18:33:37;20.20;75.80
12229;DHT22;6177;52.402;9.800;2022-09-09T18:36:24;20.10;76.10
12229;DHT22;6177;52.402;9.800;2022-09-09T18:39:09;20.10;75.90
12229;DHT22;6177;52.402;9.800;2022-09-09T18:41:55;20.00;76.20
12229;DHT22;6177;52.402;9.800;2022-09-09T18:44:40;20.00;76.10
12229;DHT22;6177;52.402;9.800;2022-09-09T18:47:25;20.00;75.80
12229;DHT22;6177;52.402;9.800;2022-09-09T18:50:10;20.00;75.70
12229;DHT22;6177;52.402;9.800;2022-09-09T18:52:54;19.90;75.90
12229;DHT22;6177;52.402;9.800;2022-09-09T18:55:39;19.90;75.90
12229;DHT22;6177;52.402;9.800;2022-09-09T18:58:23;19.80;75.80
12229;DHT22;6177;52.402;9.800;2022-09-09T19:01:12;19.90;76.00
12229;DHT22;6177;52.402;9.800;2022-09-09T19:03:56;19.90;76.90
12229;DHT22;6177;52.402;9.800;2022-09-09T19:06:42;19.60;77.60
12229;DHT22;6177;52.402;9.800;2022-09-09T19:09:29;19.20;78.40
12229;DHT22;6177;52.402;9.800;2022-09-09T19:12:14;18.90;79.30
12229;DHT22;6177;52.402;9.800;2022-09-09T19:14:59;18.70;80.20
12229;DHT22;6177;52.402;9.800;2022-09-09T19:17:43;18.50;80.40
12229;DHT22;6177;52.402;9.800;2022-09-09T19:20:28;18.30;81.20
12229;DHT22;6177;52.402;9.800;2022-09-09T19:23:12;18.10;80.70
12229;DHT22;6177;52.402;9.800;2022-09-09T19:26:01;18.00;81.00
12229;DHT22;6177;52.402;9.800;2022-09-09T19:28:46;17.90;81.60
12229;DHT22;6177;52.402;9.800;2022-09-09T19:31:32;17.80;81.60
12229;DHT22;6177;52.402;9.800;2022-09-09T19:34:18;17.70;81.30
12229;DHT22;6177;52.402;9.800;2022-09-09T19:37:03;17.70;81.90
12229;DHT22;6177;52.402;9.800;2022-09-09T19:39:48;17.60;82.20
12229;DHT22;6177;52.402;9.800;2022-09-09T19:42:34;17.50;82.50
12229;DHT22;6177;52.402;9.800;2022-09-09T19:45:18;17.30;83.10
12229;DHT22;6177;52.402;9.800;2022-09-09T19:48:03;17.20;84.10
12229;DHT22;6177;52.402;9.800;2022-09-09T19:50:49;17.20;85.30
12229;DHT22;6177;52.402;9.800;2022-09-09T19:53:41;17.10;86.00
12229;DHT22;6177;52.402;9.800;2022-09-09T19:56:25;17.10;86.40
12229;DHT22;6177;52.402;9.800;2022-09-09T19:59:10;17.10;87.10
12229;DHT22;6177;52.402;9.800;2022-09-09T20:01:56;17.10;87.80
12229;DHT22;6177;52.402;9.800;2022-09-09T20:04:41;17.10;88.10
12229;DHT22;6177;52.402;9.800;2022-09-09T20:07:26;17.10;88.20